sensor_id;sensor_type;location;lat;lon;timestamp;P1;durP1;ratioP1;P2;durP2;ratioP2
12511;SDS011;6321;53.798;10.382;2023-04-05T00:00:53;4.27;;;2.93;;
12511;SDS011;6321;53.798;10.382;2023-04-05T00:03:19;5.13;;;2.70;;
12511;SDS011;6321;53.798;10.382;2023-04-05T00:05:45;3.37;;;2.63;;
12511;SDS011;6321;53.798;10.382;2023-04-05T00:08:13;4.07;;;2.97;;
12511;SDS011;6321;53.798;10.382;2023-04-05T00:10:50;3.33;;;2.80;;
12511;SDS011;6321;53.798;10.382;2023-04-05T00:13:16;5.73;;;2.70;;
12511;SDS011;6321;53.798;10.382;2023-04-05T00:15:42;4.97;;;2.57;;
12511;SDS011;6321;53.798;10.382;2023-04-05T00:18:08;6.57;;;3.03;;
12511;SDS011;6321;53.798;10.382;2023-04-05T00:20:46;6.07;;;3.00;;
12511;SDS011;6321;53.798;10.382;2023-04-05T00:23:12;6.37;;;3.17;;
12511;SDS011;6321;53.798;10.382;2023-04-05T00:25:38;3.33;;;2.50;;
12511;SDS011;6321;53.798;10.382;2023-04-05T00:28:05;5.37;;;2.80;;
12511;SDS011;6321;53.798;10.382;2023-04-05T00:30:31;3.77;;;3.10;;
12511;SDS011;6321;53.798;10.382;2023-04-05T00:32:57;5.30;;;2.97;;
12511;SDS011;6321;53.798;10.382;2023-04-05T00:35:26;4.93;;;3.47;;
12511;SDS011;6321;53.798;10.382;2023-04-05T00:37:51;3.97;;;2.73;;
12511;SDS011;6321;53.798;10.382;2023-04-05T00:40:17;5.20;;;2.87;;
12511;SDS011;6321;53.798;10.382;2023-04-05T00:42:43;4.00;;;2.83;;
12511;SDS011;6321;53.798;10.382;2023-04-05T00:45:09;4.97;;;2.70;;
12511;SDS011;6321;53.798;10.382;2023-04-05T00:47:35;5.27;;;2.77;;
12511;SDS011;6321;53.798;10.382;2023-04-05T00:50:02;6.20;;;3.40;;
12511;SDS011;6321;53.798;10.382;2023-04-05T00:52:28;3.57;;;2.77;;
12511;SDS011;6321;53.798;10.382;2023-04-05T00:54:54;5.50;;;2.77;;
12511;SDS011;6321;53.798;10.382;2023-04-05T00:57:20;3.43;;;2.83;;
12511;SDS011;6321;53.798;10.382;2023-04-05T00:59:46;5.87;;;3.23;;
12511;SDS011;6321;53.798;10.382;2023-04-05T01:04:41;5.90;;;2.97;;
12511;SDS011;6321;53.798;10.382;2023-04-05T01:09:59;5.60;;;2.93;;
12511;SDS011;6321;53.798;10.382;2023-04-05T01:12:26;4.03;;;3.00;;
12511;SDS011;6321;53.798;10.382;2023-04-05T01:14:53;6.10;;;2.90;;
12511;SDS011;6321;53.798;10.382;2023-04-05T01:17:20;3.70;;;2.70;;
12511;SDS011;6321;53.798;10.382;2023-04-05T01:19:48;6.10;;;3.20;;
12511;SDS011;6321;53.798;10.382;2023-04-05T01:24:56;5.97;;;3.10;;
12511;SDS011;6321;53.798;10.382;2023-04-05T01:27:37;4.47;;;2.60;;
12511;SDS011;6321;53.798;10.382;2023-04-05T01:30:10;4.73;;;2.93;;
12511;SDS011;6321;53.798;10.382;2023-04-05T01:37:53;4.40;;;3.27;;
12511;SDS011;6321;53.798;10.382;2023-04-05T01:40:20;5.37;;;3.40;;
12511;SDS011;6321;53.798;10.382;2023-04-05T01:42:47;3.90;;;2.83;;
12511;SDS011;6321;53.798;10.382;2023-04-05T01:45:12;4.83;;;2.60;;
12511;SDS011;6321;53.798;10.382;2023-04-05T01:47:38;5.00;;;3.20;;
12511;SDS011;6321;53.798;10.382;2023-04-05T01:50:05;5.57;;;3.23;;
12511;SDS011;6321;53.798;10.382;2023-04-05T01:52:31;4.67;;;3.13;;
12511;SDS011;6321;53.798;10.382;2023-04-05T01:54:57;5.97;;;3.70;;
12511;SDS011;6321;53.798;10.382;2023-04-05T01:57:22;5.17;;;3.40;;
12511;SDS011;6321;53.798;10.382;2023-04-05T01:59:48;3.67;;;2.83;;
12511;SDS011;6321;53.798;10.382;2023-04-05T02:02:15;10.00;;;3.43;;
12511;SDS011;6321;53.798;10.382;2023-04-05T02:04:41;4.57;;;3.27;;
12511;SDS011;6321;53.798;10.382;2023-04-05T02:07:07;6.50;;;3.07;;
12511;SDS011;6321;53.798;10.382;2023-04-05T02:09:33;4.00;;;3.00;;
12511;SDS011;6321;53.798;10.382;2023-04-05T02:11:59;4.83;;;3.27;;
12511;SDS011;6321;53.798;10.382;2023-04-05T02:14:25;5.13;;;3.40;;
12511;SDS011;6321;53.798;10.382;2023-04-05T02:16:51;4.43;;;3.40;;
12511;SDS011;6321;53.798;10.382;2023-04-05T02:19:20;4.87;;;3.30;;
12511;SDS011;6321;53.798;10.382;2023-04-05T02:21:47;4.90;;;3.20;;
12511;SDS011;6321;53.798;10.382;2023-04-05T02:24:13;6.33;;;3.37;;
12511;SDS011;6321;53.798;10.382;2023-04-05T02:26:39;4.60;;;3.20;;
12511;SDS011;6321;53.798;10.382;2023-04-05T02:29:05;4.50;;;3.40;;
12511;SDS011;6321;53.798;10.382;2023-04-05T02:31:31;4.73;;;3.27;;
12511;SDS011;6321;53.798;10.382;2023-04-05T02:33:57;7.53;;;3.43;;
12511;SDS011;6321;53.798;10.382;2023-04-05T02:36:24;4.57;;;3.33;;
12511;SDS011;6321;53.798;10.382;2023-04-05T02:38:52;5.63;;;3.33;;
12511;SDS011;6321;53.798;10.382;2023-04-05T02:41:18;5.60;;;3.03;;
12511;SDS011;6321;53.798;10.382;2023-04-05T02:43:46;5.40;;;3.33;;
12511;SDS011;6321;53.798;10.382;2023-04-05T02:46:12;4.83;;;3.03;;
12511;SDS011;6321;53.798;10.382;2023-04-05T02:48:38;3.80;;;2.70;;
12511;SDS011;6321;53.798;10.382;2023-04-05T02:51:04;4.73;;;3.37;;
12511;SDS011;6321;53.798;10.382;2023-04-05T02:53:30;4.30;;;3.27;;
12511;SDS011;6321;53.798;10.382;2023-04-05T02:55:56;4.03;;;2.63;;
12511;SDS011;6321;53.798;10.382;2023-04-05T02:58:23;5.00;;;3.10;;
12511;SDS011;6321;53.798;10.382;2023-04-05T03:00:50;5.47;;;3.30;;
12511;SDS011;6321;53.798;10.382;2023-04-05T03:03:18;4.37;;;2.83;;
12511;SDS011;6321;53.798;10.382;2023-04-05T03:05:45;3.67;;;2.70;;
12511;SDS011;6321;53.798;10.382;2023-04-05T03:08:12;5.33;;;3.77;;
12511;SDS011;6321;53.798;10.382;2023-04-05T03:10:42;4.47;;;2.73;;
12511;SDS011;6321;53.798;10.382;2023-04-05T03:13:09;3.87;;;3.03;;
12511;SDS011;6321;53.798;10.382;2023-04-05T03:15:34;7.30;;;3.03;;
12511;SDS011;6321;53.798;10.382;2023-04-05T03:18:00;6.00;;;3.00;;
12511;SDS011;6321;53.798;10.382;2023-04-05T03:20:26;5.73;;;3.07;;
12511;SDS011;6321;53.798;10.382;2023-04-05T03:22:52;4.77;;;3.20;;
12511;SDS011;6321;53.798;10.382;2023-04-05T03:25:18;6.43;;;2.87;;
12511;SDS011;6321;53.798;10.382;2023-04-05T03:27:44;4.37;;;3.00;;
12511;SDS011;6321;53.798;10.382;2023-04-05T03:30:10;3.87;;;3.00;;
12511;SDS011;6321;53.798;10.382;2023-04-05T03:32:36;4.77;;;3.70;;
12511;SDS011;6321;53.798;10.382;2023-04-05T03:35:02;6.50;;;3.03;;
12511;SDS011;6321;53.798;10.382;2023-04-05T03:37:28;6.23;;;3.30;;
12511;SDS011;6321;53.798;10.382;2023-04-05T03:39:55;4.23;;;3.27;;
12511;SDS011;6321;53.798;10.382;2023-04-05T03:42:21;5.20;;;3.40;;
12511;SDS011;6321;53.798;10.382;2023-04-05T03:44:49;9.77;;;4.30;;
12511;SDS011;6321;53.798;10.382;2023-04-05T03:47:15;6.20;;;4.00;;
12511;SDS011;6321;53.798;10.382;2023-04-05T03:49:41;6.10;;;3.50;;
12511;SDS011;6321;53.798;10.382;2023-04-05T03:52:07;6.60;;;3.67;;
12511;SDS011;6321;53.798;10.382;2023-04-05T03:54:33;8.47;;;4.90;;
12511;SDS011;6321;53.798;10.382;2023-04-05T03:56:59;7.60;;;4.70;;
12511;SDS011;6321;53.798;10.382;2023-04-05T03:59:26;8.50;;;4.80;;
12511;SDS011;6321;53.798;10.382;2023-04-05T04:01:52;8.50;;;5.60;;
12511;SDS011;6321;53.798;10.382;2023-04-05T04:04:18;9.67;;;6.23;;
12511;SDS011;6321;53.798;10.382;2023-04-05T04:06:44;10.77;;;5.70;;
12511;SDS011;6321;53.798;10.382;2023-04-05T04:09:10;10.20;;;5.80;;
12511;SDS011;6321;53.798;10.382;2023-04-05T04:11:36;10.17;;;6.33;;
12511;SDS011;6321;53.798;10.382;2023-04-05T04:14:02;12.37;;;5.47;;
12511;SDS011;6321;53.798;10.382;2023-04-05T04:16:28;10.93;;;6.00;;
12511;SDS011;6321;53.798;10.382;2023-04-05T04:18:54;11.77;;;6.00;;
12511;SDS011;6321;53.798;10.382;2023-04-05T04:21:20;8.43;;;6.00;;
12511;SDS011;6321;53.798;10.382;2023-04-05T04:23:49;9.63;;;5.77;;
12511;SDS011;6321;53.798;10.382;2023-04-05T04:26:15;9.67;;;6.13;;
12511;SDS011;6321;53.798;10.382;2023-04-05T04:28:50;9.33;;;6.03;;
12511;SDS011;6321;53.798;10.382;2023-04-05T04:31:17;8.40;;;5.10;;
12511;SDS011;6321;53.798;10.382;2023-04-05T04:33:45;15.00;;;6.73;;
12511;SDS011;6321;53.798;10.382;2023-04-05T04:36:12;9.17;;;6.43;;
12511;SDS011;6321;53.798;10.382;2023-04-05T04:38:39;9.87;;;5.20;;
12511;SDS011;6321;53.798;10.382;2023-04-05T04:41:07;9.10;;;5.47;;
12511;SDS011;6321;53.798;10.382;2023-04-05T04:43:33;13.17;;;5.20;;
12511;SDS011;6321;53.798;10.382;2023-04-05T04:46:07;8.23;;;5.33;;
12511;SDS011;6321;53.798;10.382;2023-04-05T04:48:35;7.43;;;5.33;;
12511;SDS011;6321;53.798;10.382;2023-04-05T04:51:06;10.93;;;5.47;;
12511;SDS011;6321;53.798;10.382;2023-04-05T04:53:32;8.63;;;5.83;;
12511;SDS011;6321;53.798;10.382;2023-04-05T04:55:58;11.93;;;5.50;;
12511;SDS011;6321;53.798;10.382;2023-04-05T04:58:25;11.07;;;5.80;;
12511;SDS011;6321;53.798;10.382;2023-04-05T05:00:51;10.57;;;5.83;;
12511;SDS011;6321;53.798;10.382;2023-04-05T05:03:17;8.50;;;4.97;;
12511;SDS011;6321;53.798;10.382;2023-04-05T05:05:44;8.83;;;5.87;;
12511;SDS011;6321;53.798;10.382;2023-04-05T05:08:10;6.83;;;5.50;;
12511;SDS011;6321;53.798;10.382;2023-04-05T05:10:36;8.57;;;6.10;;
12511;SDS011;6321;53.798;10.382;2023-04-05T05:13:02;9.70;;;6.43;;
12511;SDS011;6321;53.798;10.382;2023-04-05T05:15:28;9.23;;;6.07;;
12511;SDS011;6321;53.798;10.382;2023-04-05T05:17:54;9.47;;;6.13;;
12511;SDS011;6321;53.798;10.382;2023-04-05T05:20:22;12.20;;;6.57;;
12511;SDS011;6321;53.798;10.382;2023-04-05T05:22:48;9.17;;;6.73;;
12511;SDS011;6321;53.798;10.382;2023-04-05T05:25:15;10.10;;;5.77;;
12511;SDS011;6321;53.798;10.382;2023-04-05T05:27:41;7.70;;;5.80;;
12511;SDS011;6321;53.798;10.382;2023-04-05T05:30:07;11.47;;;6.40;;
12511;SDS011;6321;53.798;10.382;2023-04-05T05:32:33;13.70;;;6.93;;
12511;SDS011;6321;53.798;10.382;2023-04-05T05:34:59;13.87;;;7.57;;
12511;SDS011;6321;53.798;10.382;2023-04-05T05:37:28;11.63;;;7.10;;
12511;SDS011;6321;53.798;10.382;2023-04-05T05:39:55;17.03;;;8.43;;
12511;SDS011;6321;53.798;10.382;2023-04-05T05:42:21;16.13;;;8.83;;
12511;SDS011;6321;53.798;10.382;2023-04-05T05:44:47;16.93;;;9.33;;
12511;SDS011;6321;53.798;10.382;2023-04-05T05:47:13;13.93;;;9.10;;
12511;SDS011;6321;53.798;10.382;2023-04-05T05:49:39;17.70;;;10.03;;
12511;SDS011;6321;53.798;10.382;2023-04-05T05:52:05;17.00;;;10.60;;
12511;SDS011;6321;53.798;10.382;2023-04-05T05:54:31;16.10;;;9.73;;
12511;SDS011;6321;53.798;10.382;2023-04-05T05:56:57;14.03;;;9.53;;
12511;SDS011;6321;53.798;10.382;2023-04-05T05:59:23;18.13;;;9.93;;
12511;SDS011;6321;53.798;10.382;2023-04-05T06:01:49;15.60;;;9.30;;
12511;SDS011;6321;53.798;10.382;2023-04-05T06:04:16;15.00;;;8.90;;
12511;SDS011;6321;53.798;10.382;2023-04-05T06:06:43;13.93;;;8.20;;
12511;SDS011;6321;53.798;10.382;2023-04-05T06:09:10;9.97;;;7.47;;
12511;SDS011;6321;53.798;10.382;2023-04-05T06:11:36;12.07;;;6.87;;
12511;SDS011;6321;53.798;10.382;2023-04-05T06:14:02;10.77;;;6.07;;
12511;SDS011;6321;53.798;10.382;2023-04-05T06:16:28;10.73;;;5.80;;
12511;SDS011;6321;53.798;10.382;2023-04-05T06:18:55;8.17;;;5.70;;
12511;SDS011;6321;53.798;10.382;2023-04-05T06:21:21;8.17;;;5.77;;
12511;SDS011;6321;53.798;10.382;2023-04-05T06:23:47;8.07;;;5.40;;
12511;SDS011;6321;53.798;10.382;2023-04-05T06:26:16;8.13;;;4.73;;
12511;SDS011;6321;53.798;10.382;2023-04-05T06:28:44;6.60;;;5.00;;
12511;SDS011;6321;53.798;10.382;2023-04-05T06:31:11;7.03;;;5.20;;
12511;SDS011;6321;53.798;10.382;2023-04-05T06:33:38;8.90;;;5.30;;
12511;SDS011;6321;53.798;10.382;2023-04-05T06:36:04;9.10;;;5.40;;
12511;SDS011;6321;53.798;10.382;2023-04-05T06:38:30;9.33;;;5.67;;
12511;SDS011;6321;53.798;10.382;2023-04-05T06:40:56;9.73;;;6.40;;
12511;SDS011;6321;53.798;10.382;2023-04-05T06:43:22;9.10;;;5.20;;
12511;SDS011;6321;53.798;10.382;2023-04-05T06:45:48;9.33;;;5.73;;
12511;SDS011;6321;53.798;10.382;2023-04-05T06:48:14;7.67;;;5.43;;
12511;SDS011;6321;53.798;10.382;2023-04-05T06:50:40;7.43;;;4.87;;
12511;SDS011;6321;53.798;10.382;2023-04-05T06:53:06;10.10;;;4.80;;
12511;SDS011;6321;53.798;10.382;2023-04-05T06:55:32;11.80;;;4.30;;
12511;SDS011;6321;53.798;10.382;2023-04-05T06:57:58;10.87;;;4.50;;
12511;SDS011;6321;53.798;10.382;2023-04-05T07:00:24;8.53;;;4.93;;
12511;SDS011;6321;53.798;10.382;2023-04-05T07:02:50;6.07;;;4.47;;
12511;SDS011;6321;53.798;10.382;2023-04-05T07:05:16;6.57;;;4.10;;
12511;SDS011;6321;53.798;10.382;2023-04-05T07:07:42;6.60;;;4.13;;
12511;SDS011;6321;53.798;10.382;2023-04-05T07:10:09;6.63;;;4.30;;
12511;SDS011;6321;53.798;10.382;2023-04-05T07:12:36;6.77;;;4.17;;
12511;SDS011;6321;53.798;10.382;2023-04-05T07:15:02;6.10;;;4.40;;
12511;SDS011;6321;53.798;10.382;2023-04-05T07:17:28;6.53;;;3.93;;
12511;SDS011;6321;53.798;10.382;2023-04-05T07:19:54;9.00;;;4.10;;
12511;SDS011;6321;53.798;10.382;2023-04-05T07:22:20;5.93;;;3.77;;
12511;SDS011;6321;53.798;10.382;2023-04-05T07:24:46;5.60;;;4.37;;
12511;SDS011;6321;53.798;10.382;2023-04-05T07:27:12;4.30;;;2.93;;
12511;SDS011;6321;53.798;10.382;2023-04-05T07:29:39;5.10;;;3.00;;
12511;SDS011;6321;53.798;10.382;2023-04-05T07:32:07;8.63;;;3.63;;
12511;SDS011;6321;53.798;10.382;2023-04-05T07:34:33;4.13;;;3.30;;
12511;SDS011;6321;53.798;10.382;2023-04-05T07:36:59;4.87;;;3.30;;
12511;SDS011;6321;53.798;10.382;2023-04-05T07:39:25;4.43;;;3.00;;
12511;SDS011;6321;53.798;10.382;2023-04-05T07:41:51;4.67;;;3.03;;
12511;SDS011;6321;53.798;10.382;2023-04-05T07:44:17;4.63;;;3.20;;
12511;SDS011;6321;53.798;10.382;2023-04-05T07:46:43;5.80;;;3.03;;
12511;SDS011;6321;53.798;10.382;2023-04-05T07:49:10;9.30;;;3.80;;
12511;SDS011;6321;53.798;10.382;2023-04-05T07:51:36;5.67;;;4.07;;
12511;SDS011;6321;53.798;10.382;2023-04-05T07:54:02;4.77;;;3.00;;
12511;SDS011;6321;53.798;10.382;2023-04-05T07:56:29;4.50;;;3.43;;
12511;SDS011;6321;53.798;10.382;2023-04-05T07:58:55;5.47;;;3.80;;
12511;SDS011;6321;53.798;10.382;2023-04-05T08:01:21;4.43;;;3.90;;
12511;SDS011;6321;53.798;10.382;2023-04-05T08:03:52;5.07;;;3.33;;
12511;SDS011;6321;53.798;10.382;2023-04-05T08:06:17;6.07;;;4.20;;
12511;SDS011;6321;53.798;10.382;2023-04-05T08:08:44;5.93;;;3.83;;
12511;SDS011;6321;53.798;10.382;2023-04-05T08:11:10;6.33;;;3.50;;
12511;SDS011;6321;53.798;10.382;2023-04-05T08:13:36;5.47;;;3.83;;
12511;SDS011;6321;53.798;10.382;2023-04-05T08:16:05;6.00;;;4.27;;
12511;SDS011;6321;53.798;10.382;2023-04-05T08:18:31;5.33;;;4.20;;
12511;SDS011;6321;53.798;10.382;2023-04-05T08:20:57;6.43;;;4.10;;
12511;SDS011;6321;53.798;10.382;2023-04-05T08:23:23;5.80;;;4.67;;
12511;SDS011;6321;53.798;10.382;2023-04-05T08:25:49;5.90;;;4.27;;
12511;SDS011;6321;53.798;10.382;2023-04-05T08:28:16;6.33;;;4.13;;
12511;SDS011;6321;53.798;10.382;2023-04-05T08:30:42;6.47;;;4.30;;
12511;SDS011;6321;53.798;10.382;2023-04-05T08:33:09;5.50;;;4.00;;
12511;SDS011;6321;53.798;10.382;2023-04-05T08:35:35;7.03;;;4.67;;
12511;SDS011;6321;53.798;10.382;2023-04-05T08:38:02;5.43;;;3.47;;
12511;SDS011;6321;53.798;10.382;2023-04-05T08:40:32;8.10;;;3.20;;
12511;SDS011;6321;53.798;10.382;2023-04-05T08:43:09;7.83;;;4.40;;
12511;SDS011;6321;53.798;10.382;2023-04-05T08:45:36;8.43;;;4.20;;
12511;SDS011;6321;53.798;10.382;2023-04-05T08:48:05;6.13;;;3.60;;
12511;SDS011;6321;53.798;10.382;2023-04-05T08:50:31;6.77;;;4.10;;
12511;SDS011;6321;53.798;10.382;2023-04-05T08:52:57;5.63;;;4.37;;
12511;SDS011;6321;53.798;10.382;2023-04-05T08:55:23;5.23;;;4.17;;
12511;SDS011;6321;53.798;10.382;2023-04-05T08:57:49;6.50;;;4.20;;
12511;SDS011;6321;53.798;10.382;2023-04-05T09:00:17;7.23;;;4.40;;
12511;SDS011;6321;53.798;10.382;2023-04-05T09:02:45;5.77;;;4.20;;
12511;SDS011;6321;53.798;10.382;2023-04-05T09:05:13;8.13;;;4.40;;
12511;SDS011;6321;53.798;10.382;2023-04-05T09:07:40;5.63;;;4.33;;
12511;SDS011;6321;53.798;10.382;2023-04-05T09:10:07;5.87;;;4.13;;
12511;SDS011;6321;53.798;10.382;2023-04-05T09:12:34;6.13;;;3.83;;
12511;SDS011;6321;53.798;10.382;2023-04-05T09:15:00;9.13;;;4.47;;
12511;SDS011;6321;53.798;10.382;2023-04-05T09:17:27;19.50;;;6.03;;
12511;SDS011;6321;53.798;10.382;2023-04-05T09:19:53;7.10;;;4.17;;
12511;SDS011;6321;53.798;10.382;2023-04-05T09:22:18;8.30;;;4.33;;
12511;SDS011;6321;53.798;10.382;2023-04-05T09:24:45;7.23;;;3.77;;
12511;SDS011;6321;53.798;10.382;2023-04-05T09:27:12;9.23;;;5.17;;
12511;SDS011;6321;53.798;10.382;2023-04-05T09:29:39;8.13;;;4.30;;
12511;SDS011;6321;53.798;10.382;2023-04-05T09:32:05;5.57;;;4.17;;
12511;SDS011;6321;53.798;10.382;2023-04-05T09:34:32;7.90;;;4.23;;
12511;SDS011;6321;53.798;10.382;2023-04-05T09:37:00;7.10;;;3.97;;
12511;SDS011;6321;53.798;10.382;2023-04-05T09:39:27;7.33;;;4.07;;
12511;SDS011;6321;53.798;10.382;2023-04-05T09:42:06;6.13;;;4.00;;
12511;SDS011;6321;53.798;10.382;2023-04-05T09:47:18;6.13;;;3.63;;
12511;SDS011;6321;53.798;10.382;2023-04-05T09:49:45;6.07;;;3.70;;
12511;SDS011;6321;53.798;10.382;2023-04-05T09:52:24;4.90;;;4.40;;
12511;SDS011;6321;53.798;10.382;2023-04-05T09:54:51;7.63;;;3.73;;
12511;SDS011;6321;53.798;10.382;2023-04-05T09:57:17;6.50;;;4.80;;
12511;SDS011;6321;53.798;10.382;2023-04-05T09:59:44;4.63;;;3.53;;
12511;SDS011;6321;53.798;10.382;2023-04-05T10:02:10;5.33;;;3.37;;
12511;SDS011;6321;53.798;10.382;2023-04-05T10:04:40;7.03;;;3.50;;
12511;SDS011;6321;53.798;10.382;2023-04-05T10:07:10;5.20;;;3.53;;
12511;SDS011;6321;53.798;10.382;2023-04-05T10:09:40;5.33;;;3.53;;
12511;SDS011;6321;53.798;10.382;2023-04-05T10:12:06;6.50;;;3.40;;
12511;SDS011;6321;53.798;10.382;2023-04-05T10:14:33;4.17;;;2.93;;
12511;SDS011;6321;53.798;10.382;2023-04-05T10:17:07;5.57;;;3.47;;
12511;SDS011;6321;53.798;10.382;2023-04-05T10:22:19;6.20;;;3.30;;
12511;SDS011;6321;53.798;10.382;2023-04-05T10:24:50;5.17;;;3.07;;
12511;SDS011;6321;53.798;10.382;2023-04-05T10:27:19;8.37;;;3.73;;
12511;SDS011;6321;53.798;10.382;2023-04-05T10:29:49;6.17;;;2.90;;
12511;SDS011;6321;53.798;10.382;2023-04-05T10:35:09;4.43;;;3.20;;
12511;SDS011;6321;53.798;10.382;2023-04-05T10:37:53;4.07;;;2.93;;
12511;SDS011;6321;53.798;10.382;2023-04-05T10:40:24;3.87;;;2.87;;
12511;SDS011;6321;53.798;10.382;2023-04-05T10:42:54;5.67;;;3.07;;
12511;SDS011;6321;53.798;10.382;2023-04-05T10:45:20;4.20;;;3.23;;
12511;SDS011;6321;53.798;10.382;2023-04-05T10:47:54;4.40;;;3.47;;
12511;SDS011;6321;53.798;10.382;2023-04-05T10:50:23;4.53;;;2.90;;
12511;SDS011;6321;53.798;10.382;2023-04-05T10:52:52;4.07;;;3.10;;
12511;SDS011;6321;53.798;10.382;2023-04-05T10:55:18;8.27;;;3.97;;
12511;SDS011;6321;53.798;10.382;2023-04-05T10:57:46;4.70;;;3.70;;
12511;SDS011;6321;53.798;10.382;2023-04-05T11:00:13;6.83;;;3.77;;
12511;SDS011;6321;53.798;10.382;2023-04-05T11:02:40;4.60;;;3.53;;
12511;SDS011;6321;53.798;10.382;2023-04-05T11:05:07;5.70;;;3.63;;
12511;SDS011;6321;53.798;10.382;2023-04-05T11:07:52;4.83;;;2.90;;
12511;SDS011;6321;53.798;10.382;2023-04-05T11:10:20;3.83;;;2.60;;
12511;SDS011;6321;53.798;10.382;2023-04-05T11:18:04;6.27;;;2.80;;
12511;SDS011;6321;53.798;10.382;2023-04-05T11:20:47;4.10;;;2.90;;
12511;SDS011;6321;53.798;10.382;2023-04-05T11:23:15;3.53;;;2.97;;
12511;SDS011;6321;53.798;10.382;2023-04-05T11:25:46;8.70;;;2.80;;
12511;SDS011;6321;53.798;10.382;2023-04-05T11:28:22;4.73;;;3.00;;
12511;SDS011;6321;53.798;10.382;2023-04-05T11:33:34;2.67;;;2.47;;
12511;SDS011;6321;53.798;10.382;2023-04-05T11:36:00;3.33;;;2.70;;
12511;SDS011;6321;53.798;10.382;2023-04-05T11:38:27;4.50;;;2.30;;
12511;SDS011;6321;53.798;10.382;2023-04-05T11:41:04;3.50;;;2.43;;
12511;SDS011;6321;53.798;10.382;2023-04-05T11:43:30;6.63;;;2.80;;
12511;SDS011;6321;53.798;10.382;2023-04-05T11:45:58;3.67;;;2.93;;
12511;SDS011;6321;53.798;10.382;2023-04-05T11:48:27;5.47;;;2.97;;
12511;SDS011;6321;53.798;10.382;2023-04-05T11:50:53;6.10;;;3.37;;
12511;SDS011;6321;53.798;10.382;2023-04-05T11:53:20;7.03;;;3.00;;
12511;SDS011;6321;53.798;10.382;2023-04-05T11:55:46;5.43;;;3.13;;
12511;SDS011;6321;53.798;10.382;2023-04-05T11:58:15;4.23;;;2.50;;
12511;SDS011;6321;53.798;10.382;2023-04-05T12:00:42;4.07;;;2.57;;
12511;SDS011;6321;53.798;10.382;2023-04-05T12:03:14;2.40;;;2.20;;
12511;SDS011;6321;53.798;10.382;2023-04-05T12:05:45;3.47;;;2.97;;
12511;SDS011;6321;53.798;10.382;2023-04-05T12:08:11;17.90;;;4.03;;
12511;SDS011;6321;53.798;10.382;2023-04-05T12:10:37;9.10;;;2.97;;
12511;SDS011;6321;53.798;10.382;2023-04-05T12:13:03;3.30;;;1.97;;
12511;SDS011;6321;53.798;10.382;2023-04-05T12:15:29;3.00;;;2.10;;
12511;SDS011;6321;53.798;10.382;2023-04-05T12:17:55;3.43;;;2.50;;
12511;SDS011;6321;53.798;10.382;2023-04-05T12:20:23;3.37;;;2.57;;
12511;SDS011;6321;53.798;10.382;2023-04-05T12:22:50;8.37;;;2.63;;
12511;SDS011;6321;53.798;10.382;2023-04-05T12:25:16;4.37;;;3.03;;
12511;SDS011;6321;53.798;10.382;2023-04-05T12:27:43;5.00;;;3.07;;
12511;SDS011;6321;53.798;10.382;2023-04-05T12:30:10;3.00;;;2.50;;
12511;SDS011;6321;53.798;10.382;2023-04-05T12:32:40;4.40;;;2.83;;
12511;SDS011;6321;53.798;10.382;2023-04-05T12:35:17;5.60;;;3.00;;
12511;SDS011;6321;53.798;10.382;2023-04-05T12:37:43;4.07;;;2.57;;
12511;SDS011;6321;53.798;10.382;2023-04-05T12:40:09;3.77;;;2.57;;
12511;SDS011;6321;53.798;10.382;2023-04-05T12:42:36;3.47;;;2.60;;
12511;SDS011;6321;53.798;10.382;2023-04-05T12:45:08;3.07;;;2.47;;
12511;SDS011;6321;53.798;10.382;2023-04-05T12:47:34;4.13;;;2.20;;
12511;SDS011;6321;53.798;10.382;2023-04-05T12:50:13;3.70;;;1.90;;
12511;SDS011;6321;53.798;10.382;2023-04-05T12:53:03;2.87;;;2.57;;
12511;SDS011;6321;53.798;10.382;2023-04-05T12:55:30;3.17;;;2.30;;
12511;SDS011;6321;53.798;10.382;2023-04-05T12:57:58;3.70;;;2.47;;
12511;SDS011;6321;53.798;10.382;2023-04-05T13:00:25;4.00;;;2.37;;
12511;SDS011;6321;53.798;10.382;2023-04-05T13:02:52;2.40;;;2.20;;
12511;SDS011;6321;53.798;10.382;2023-04-05T13:05:28;3.67;;;2.10;;
12511;SDS011;6321;53.798;10.382;2023-04-05T13:07:54;2.97;;;2.40;;
12511;SDS011;6321;53.798;10.382;2023-04-05T13:10:21;2.57;;;2.00;;
12511;SDS011;6321;53.798;10.382;2023-04-05T13:12:47;5.53;;;2.47;;
12511;SDS011;6321;53.798;10.382;2023-04-05T13:15:14;2.73;;;2.33;;
12511;SDS011;6321;53.798;10.382;2023-04-05T13:17:41;4.87;;;2.53;;
12511;SDS011;6321;53.798;10.382;2023-04-05T13:20:09;11.77;;;4.00;;
12511;SDS011;6321;53.798;10.382;2023-04-05T13:22:35;11.70;;;3.67;;
12511;SDS011;6321;53.798;10.382;2023-04-05T13:25:01;5.40;;;2.43;;
12511;SDS011;6321;53.798;10.382;2023-04-05T13:27:27;5.10;;;2.40;;
12511;SDS011;6321;53.798;10.382;2023-04-05T13:29:53;4.23;;;2.40;;
12511;SDS011;6321;53.798;10.382;2023-04-05T13:32:19;4.57;;;2.13;;
12511;SDS011;6321;53.798;10.382;2023-04-05T13:34:45;5.00;;;2.20;;
12511;SDS011;6321;53.798;10.382;2023-04-05T13:37:12;4.13;;;2.30;;
12511;SDS011;6321;53.798;10.382;2023-04-05T13:39:38;1.63;;;1.53;;
12511;SDS011;6321;53.798;10.382;2023-04-05T13:42:04;2.13;;;1.63;;
12511;SDS011;6321;53.798;10.382;2023-04-05T13:44:30;2.10;;;1.90;;
12511;SDS011;6321;53.798;10.382;2023-04-05T13:46:56;3.00;;;2.20;;
12511;SDS011;6321;53.798;10.382;2023-04-05T13:49:22;2.70;;;2.27;;
12511;SDS011;6321;53.798;10.382;2023-04-05T13:51:48;3.33;;;3.00;;
12511;SDS011;6321;53.798;10.382;2023-04-05T13:54:14;5.10;;;2.70;;
12511;SDS011;6321;53.798;10.382;2023-04-05T13:56:40;7.53;;;3.23;;
12511;SDS011;6321;53.798;10.382;2023-04-05T13:59:06;4.90;;;2.90;;
12511;SDS011;6321;53.798;10.382;2023-04-05T14:01:33;5.30;;;3.27;;
12511;SDS011;6321;53.798;10.382;2023-04-05T14:03:59;5.97;;;3.40;;
12511;SDS011;6321;53.798;10.382;2023-04-05T14:06:25;3.77;;;2.77;;
12511;SDS011;6321;53.798;10.382;2023-04-05T14:08:51;6.43;;;3.63;;
12511;SDS011;6321;53.798;10.382;2023-04-05T14:11:22;6.33;;;3.30;;
12511;SDS011;6321;53.798;10.382;2023-04-05T14:13:48;5.13;;;2.90;;
12511;SDS011;6321;53.798;10.382;2023-04-05T14:16:15;5.03;;;3.07;;
12511;SDS011;6321;53.798;10.382;2023-04-05T14:18:41;5.57;;;3.30;;
12511;SDS011;6321;53.798;10.382;2023-04-05T14:21:07;3.53;;;3.00;;
12511;SDS011;6321;53.798;10.382;2023-04-05T14:23:34;3.53;;;3.00;;
12511;SDS011;6321;53.798;10.382;2023-04-05T14:26:00;7.33;;;3.33;;
12511;SDS011;6321;53.798;10.382;2023-04-05T14:28:26;3.70;;;3.27;;
12511;SDS011;6321;53.798;10.382;2023-04-05T14:30:52;5.63;;;3.33;;
12511;SDS011;6321;53.798;10.382;2023-04-05T14:33:18;4.03;;;3.10;;
12511;SDS011;6321;53.798;10.382;2023-04-05T14:35:44;3.73;;;2.73;;
12511;SDS011;6321;53.798;10.382;2023-04-05T14:38:10;4.60;;;2.90;;
12511;SDS011;6321;53.798;10.382;2023-04-05T14:40:36;2.50;;;2.30;;
12511;SDS011;6321;53.798;10.382;2023-04-05T14:43:02;3.87;;;2.60;;
12511;SDS011;6321;53.798;10.382;2023-04-05T14:45:28;4.60;;;3.07;;
12511;SDS011;6321;53.798;10.382;2023-04-05T14:47:54;4.80;;;2.60;;
12511;SDS011;6321;53.798;10.382;2023-04-05T14:50:20;3.03;;;2.40;;
12511;SDS011;6321;53.798;10.382;2023-04-05T14:52:46;2.77;;;2.43;;
12511;SDS011;6321;53.798;10.382;2023-04-05T14:55:13;2.33;;;2.13;;
12511;SDS011;6321;53.798;10.382;2023-04-05T14:57:40;2.93;;;2.10;;
12511;SDS011;6321;53.798;10.382;2023-04-05T15:00:07;3.53;;;2.37;;
12511;SDS011;6321;53.798;10.382;2023-04-05T15:02:33;2.87;;;1.80;;
12511;SDS011;6321;53.798;10.382;2023-04-05T15:04:59;2.43;;;1.97;;
12511;SDS011;6321;53.798;10.382;2023-04-05T15:07:26;3.60;;;1.70;;
12511;SDS011;6321;53.798;10.382;2023-04-05T15:09:52;3.67;;;1.97;;
12511;SDS011;6321;53.798;10.382;2023-04-05T15:12:18;2.90;;;2.10;;
12511;SDS011;6321;53.798;10.382;2023-04-05T15:14:44;4.87;;;2.00;;